Time;durP1;ratioP1;P1;durP2;ratioP2;P2;SDS_P1;SDS_P2;PMS_P1;PMS_P2;Temp;Humidity;BMP_temperature;BMP_pressure;BME280_temperature;BME280_humidity;BME280_pressure;Samples;Min_cycle;Max_cycle;Signal;HPM_P1;HPM_P2
2023/07/05 00:00:34;;;;;;;212.90;203.68;;;14.00;99.90;;;;;;5044992;28;20044;-69
2023/07/05 00:03:00;;;;;;;123.70;118.10;;;14.00;99.90;;;;;;5023465;28;20527;-70
2023/07/05 00:05:26;;;;;;;119.57;113.97;;;14.00;99.90;;;;;;5030886;28;20041;-70
2023/07/05 00:07:52;;;;;;;160.60;153.25;;;14.00;99.90;;;;;;5045031;28;20132;-69
2023/07/05 00:10:18;;;;;;;143.50;137.13;;;14.00;99.90;;;;;;5008534;28;20512;-69
2023/07/05 00:12:44;;;;;;;150.98;144.25;;;14.00;99.90;;;;;;5028001;28;20041;-69
2023/07/05 00:15:10;;;;;;;155.23;148.30;;;14.00;99.90;;;;;;5028651;28;20052;-69
2023/07/05 00:17:36;;;;;;;156.07;148.98;;;13.90;99.90;;;;;;5021200;28;20517;-69
2023/07/05 00:20:04;;;;;;;129.10;123.47;;;14.00;99.90;;;;;;5026811;28;20451;-70
2023/07/05 00:22:30;;;;;;;123.82;118.28;;;13.90;99.90;;;;;;5010092;28;20188;-70
2023/07/05 00:24:56;;;;;;;115.28;109.90;;;13.90;99.90;;;;;;5043568;28;20490;-70
2023/07/05 00:27:25;;;;;;;116.38;111.05;;;13.90;99.90;;;;;;5029235;28;20042;-70
2023/07/05 00:29:53;;;;;;;118.57;112.97;;;13.90;99.90;;;;;;5018199;28;20046;-70
2023/07/05 00:32:22;;;;;;;114.18;108.72;;;14.00;99.90;;;;;;5021838;28;20044;-70
2023/07/05 00:34:47;;;;;;;115.75;110.30;;;13.90;99.90;;;;;;5041596;28;20493;-70
2023/07/05 00:37:13;;;;;;;121.43;115.57;;;13.90;99.90;;;;;;5018578;28;20040;-70
2023/07/05 00:39:39;;;;;;;125.43;119.07;;;14.00;99.90;;;;;;5040810;28;20124;-69
2023/07/05 00:42:05;;;;;;;122.75;117.13;;;14.00;99.90;;;;;;5021213;28;20184;-70
2023/07/05 00:44:31;;;;;;;106.35;101.50;;;14.00;99.90;;;;;;5012788;28;20118;-69
2023/07/05 00:47:03;;;;;;;110.88;105.38;;;14.00;99.90;;;;;;5024542;28;20554;-69
2023/07/05 00:49:32;;;;;;;122.50;116.55;;;14.00;99.90;;;;;;5026514;28;20423;-70
2023/07/05 00:52:01;;;;;;;125.63;119.72;;;14.00;99.90;;;;;;5029339;28;20402;-69
2023/07/05 00:54:34;;;;;;;104.50;99.43;;;14.00;99.90;;;;;;5011768;28;20113;-70
2023/07/05 00:57:05;;;;;;;108.55;103.50;;;14.00;99.90;;;;;;5010354;28;20111;-69
2023/07/05 00:59:41;;;;;;;109.88;104.55;;;14.00;99.90;;;;;;5034368;28;20052;-69
2023/07/05 01:02:07;;;;;;;107.45;102.00;;;14.00;99.90;;;;;;5045247;28;20046;-69
2023/07/05 01:04:34;;;;;;;106.53;101.28;;;14.00;99.90;;;;;;5027577;28;20045;-69
2023/07/05 01:07:00;;;;;;;113.07;107.95;;;14.00;99.90;;;;;;5038256;28;20053;-70
2023/07/05 01:09:26;;;;;;;109.95;104.65;;;14.00;99.90;;;;;;5031574;28;20048;-69
2023/07/05 01:12:34;;;;;;;119.03;113.22;;;14.00;99.90;;;;;;5028735;28;20041;-69
2023/07/05 01:15:03;;;;;;;114.20;108.80;;;14.00;99.90;;;;;;5028103;28;20033;-69
2023/07/05 01:17:46;;;;;;;115.10;109.50;;;14.00;99.90;;;;;;5026029;28;20492;-69
2023/07/05 01:20:21;;;;;;;111.93;106.55;;;14.00;99.90;;;;;;5047344;28;20128;-70
2023/07/05 01:23:24;;;;;;;110.15;104.82;;;14.00;99.90;;;;;;5026590;28;20115;-69
2023/07/05 01:26:31;;;;;;;112.03;106.38;;;14.00;99.90;;;;;;5032752;28;20566;-70
2023/07/05 01:29:21;;;;;;;110.90;105.68;;;14.00;99.90;;;;;;5015963;28;20053;-70
2023/07/05 01:32:08;;;;;;;117.65;111.80;;;14.00;99.90;;;;;;5043759;28;20045;-69
2023/07/05 01:34:42;;;;;;;134.35;128.00;;;14.00;99.90;;;;;;5021908;28;20044;-69
2023/07/05 01:37:10;;;;;;;132.18;125.57;;;14.00;99.90;;;;;;5023050;28;20517;-69
2023/07/05 01:39:36;;;;;;;133.95;127.28;;;14.00;99.90;;;;;;5026853;28;20037;-70
2023/07/05 01:42:03;;;;;;;120.90;114.82;;;14.00;99.90;;;;;;5026457;28;20045;-71
2023/07/05 01:44:30;;;;;;;128.02;121.70;;;13.90;99.90;;;;;;5025097;28;20191;-70
2023/07/05 01:47:10;;;;;;;113.22;107.28;;;13.90;99.90;;;;;;5023237;28;20179;-70
2023/07/05 01:49:59;;;;;;;131.35;124.70;;;13.90;99.90;;;;;;5041872;28;20037;-70
2023/07/05 01:52:53;;;;;;;92.28;86.82;;;13.90;99.90;;;;;;5020112;28;20041;-70
2023/07/05 01:55:25;;;;;;;98.05;92.55;;;13.90;99.90;;;;;;5024982;28;20041;-70
2023/07/05 01:57:58;;;;;;;97.90;92.20;;;13.80;99.90;;;;;;5023029;28;20118;-70
2023/07/05 02:00:26;;;;;;;103.95;98.40;;;13.80;99.90;;;;;;5043564;28;20056;-70
2023/07/05 02:02:57;;;;;;;106.82;101.00;;;13.80;99.90;;;;;;5024520;28;20041;-70
2023/07/05 02:05:27;;;;;;;103.25;97.40;;;13.80;99.90;;;;;;5026552;28;20041;-70
2023/07/05 02:07:54;;;;;;;116.18;109.85;;;13.70;99.90;;;;;;5040929;28;20040;-69
2023/07/05 02:10:21;;;;;;;117.43;111.13;;;13.80;99.90;;;;;;5018199;28;20537;-69
2023/07/05 02:12:47;;;;;;;121.85;115.18;;;13.70;99.90;;;;;;5026363;28;20045;-70
2023/07/05 02:15:13;;;;;;;107.03;101.20;;;13.70;99.90;;;;;;5026512;28;20424;-70
2023/07/05 02:17:39;;;;;;;96.97;91.25;;;13.70;99.90;;;;;;5022516;28;20052;-69
2023/07/05 02:20:06;;;;;;;105.38;99.35;;;13.70;99.90;;;;;;5026401;28;20152;-69
2023/07/05 02:22:32;;;;;;;101.35;95.25;;;13.70;99.90;;;;;;5027869;28;20081;-69
2023/07/05 02:24:57;;;;;;;96.05;90.20;;;13.70;99.90;;;;;;5017268;28;20567;-70
2023/07/05 02:27:23;;;;;;;96.38;91.15;;;13.80;99.90;;;;;;5025676;28;20048;-69
2023/07/05 02:29:50;;;;;;;95.30;89.50;;;13.80;99.90;;;;;;5026334;28;20140;-69
2023/07/05 02:32:16;;;;;;;97.68;92.13;;;13.80;99.90;;;;;;5023599;28;20084;-69
2023/07/05 02:34:42;;;;;;;103.35;97.38;;;13.80;99.90;;;;;;5021672;28;20513;-70
2023/07/05 02:37:09;;;;;;;92.53;86.93;;;13.80;99.90;;;;;;5024297;28;20148;-70
2023/07/05 02:39:35;;;;;;;130.35;123.03;;;13.80;99.90;;;;;;5025549;28;20046;-70
2023/07/05 02:42:02;;;;;;;157.60;149.43;;;13.80;99.90;;;;;;5014183;28;20042;-70
2023/07/05 02:44:27;;;;;;;158.38;150.32;;;13.90;99.90;;;;;;5035168;28;20410;-70
2023/07/05 02:46:53;;;;;;;184.70;174.25;;;13.90;99.90;;;;;;5023914;28;20053;-70
2023/07/05 02:49:18;;;;;;;178.73;169.73;;;13.90;99.90;;;;;;5025597;28;20049;-70
2023/07/05 02:51:44;;;;;;;194.77;184.73;;;13.90;99.90;;;;;;5016143;28;20041;-70
2023/07/05 02:54:10;;;;;;;206.82;196.70;;;13.90;99.90;;;;;;5034687;28;20102;-70
2023/07/05 02:56:36;;;;;;;212.73;202.10;;;13.90;99.90;;;;;;5009472;28;20486;-70
2023/07/05 02:59:01;;;;;;;212.73;202.15;;;13.90;99.90;;;;;;5015316;28;20124;-69
2023/07/05 03:01:27;;;;;;;203.52;193.50;;;13.90;99.90;;;;;;5025475;28;20041;-69
2023/07/05 03:03:53;;;;;;;201.43;191.63;;;13.90;99.90;;;;;;5026398;28;20041;-70
2023/07/05 03:06:18;;;;;;;184.88;175.45;;;13.90;99.90;;;;;;5043058;28;20102;-69
2023/07/05 03:08:44;;;;;;;190.45;180.82;;;13.90;99.90;;;;;;5042521;28;20120;-69
2023/07/05 03:11:10;;;;;;;179.38;170.20;;;13.90;99.90;;;;;;4998910;28;20043;-70
2023/07/05 03:13:36;;;;;;;165.68;157.20;;;13.90;99.90;;;;;;5038503;28;20045;-69
2023/07/05 03:16:02;;;;;;;170.57;161.98;;;13.90;99.90;;;;;;5025692;28;20091;-70
2023/07/05 03:18:28;;;;;;;156.60;148.40;;;13.90;99.90;;;;;;5017997;28;20099;-69
2023/07/05 03:20:54;;;;;;;146.00;138.40;;;13.90;99.90;;;;;;5018377;28;20041;-70
2023/07/05 03:23:20;;;;;;;128.68;121.88;;;13.90;99.90;;;;;;5023992;28;20136;-69
2023/07/05 03:25:59;;;;;;;142.70;134.93;;;13.90;99.90;;;;;;5028727;28;20053;-70
2023/07/05 03:28:27;;;;;;;133.32;125.53;;;14.00;99.90;;;;;;5041740;28;20045;-70
2023/07/05 03:31:02;;;;;;;123.68;116.70;;;13.90;99.90;;;;;;5042666;28;20119;-69
2023/07/05 03:33:28;;;;;;;130.75;123.60;;;13.90;99.90;;;;;;5037788;28;20445;-70
2023/07/05 03:35:58;;;;;;;128.20;121.57;;;14.00;99.90;;;;;;5030073;28;20409;-70
2023/07/05 03:38:25;;;;;;;117.30;110.95;;;14.00;99.90;;;;;;5017382;28;20488;-70
2023/07/05 03:41:08;;;;;;;117.65;111.05;;;14.00;99.90;;;;;;5020422;28;20084;-69
2023/07/05 03:43:36;;;;;;;121.50;114.95;;;14.00;99.90;;;;;;5029462;28;20510;-70
2023/07/05 03:46:06;;;;;;;111.45;105.35;;;14.00;99.90;;;;;;5025315;28;20080;-70
2023/07/05 03:48:38;;;;;;;114.43;108.40;;;14.00;99.90;;;;;;5021208;28;20511;-69
2023/07/05 03:51:04;;;;;;;112.30;105.90;;;14.10;99.90;;;;;;5029354;28;20046;-69
2023/07/05 03:53:30;;;;;;;107.50;101.18;;;14.10;99.90;;;;;;5012927;28;20091;-69
2023/07/05 03:56:01;;;;;;;108.68;102.55;;;14.10;99.90;;;;;;5025666;28;20077;-69
2023/07/05 03:58:27;;;;;;;116.43;109.97;;;14.10;99.90;;;;;;5020592;28;20048;-70
2023/07/05 04:00:52;;;;;;;112.90;106.50;;;14.20;99.90;;;;;;5011988;28;20029;-70
2023/07/05 04:03:18;;;;;;;112.70;106.47;;;14.20;99.90;;;;;;5028236;28;20037;-70
2023/07/05 04:05:43;;;;;;;119.43;113.28;;;14.20;99.90;;;;;;5023069;28;20049;-70
2023/07/05 04:08:09;;;;;;;155.55;147.38;;;14.20;99.90;;;;;;5025967;28;20041;-69
2023/07/05 04:10:35;;;;;;;120.10;113.32;;;14.30;99.90;;;;;;5030234;28;20449;-69
2023/07/05 04:13:00;;;;;;;140.60;133.30;;;14.40;99.90;;;;;;5013089;28;20029;-69
2023/07/05 04:15:26;;;;;;;139.57;132.55;;;14.40;99.90;;;;;;5027678;28;20041;-70
2023/07/05 04:17:52;;;;;;;139.95;132.73;;;14.50;99.90;;;;;;5026932;28;20045;-70
2023/07/05 04:20:17;;;;;;;134.43;127.57;;;14.40;99.90;;;;;;5045371;28;20496;-70
2023/07/05 04:22:43;;;;;;;124.18;117.75;;;14.50;99.90;;;;;;5013927;28;20037;-70
2023/07/05 04:25:09;;;;;;;138.30;131.40;;;14.50;99.90;;;;;;5022596;28;20120;-70
2023/07/05 04:27:35;;;;;;;129.70;123.10;;;14.50;99.90;;;;;;5020504;28;20049;-69
2023/07/05 04:30:03;;;;;;;132.10;125.30;;;14.50;99.90;;;;;;5043305;28;20052;-70
2023/07/05 04:32:29;;;;;;;231.63;220.02;;;14.60;99.90;;;;;;5027439;28;20045;-70
2023/07/05 04:34:55;;;;;;;227.57;214.23;;;14.60;99.90;;;;;;5028311;28;20060;-69
2023/07/05 04:37:21;;;;;;;179.88;171.15;;;14.60;99.90;;;;;;5028641;28;20046;-70
2023/07/05 04:39:46;;;;;;;197.75;188.40;;;14.70;99.90;;;;;;5021398;28;20183;-70
2023/07/05 04:42:12;;;;;;;161.18;153.38;;;14.60;99.90;;;;;;5028543;28;20060;-69
2023/07/05 04:44:38;;;;;;;191.48;182.57;;;14.60;99.90;;;;;;5015457;28;20118;-71
2023/07/05 04:47:04;;;;;;;179.48;170.90;;;14.60;99.90;;;;;;4999774;28;20383;-71
2023/07/05 04:49:29;;;;;;;232.05;220.18;;;14.60;99.90;;;;;;5028075;28;20077;-70
2023/07/05 04:51:55;;;;;;;180.77;172.18;;;14.60;99.90;;;;;;5028880;28;20067;-71
2023/07/05 04:54:20;;;;;;;162.18;154.63;;;14.60;99.90;;;;;;5017812;28;20391;-70
2023/07/05 04:56:46;;;;;;;162.40;154.73;;;14.60;99.90;;;;;;5033202;28;20046;-70
2023/07/05 04:59:12;;;;;;;224.60;214.45;;;14.60;99.90;;;;;;5025549;28;20052;-70
2023/07/05 05:01:38;;;;;;;182.50;174.35;;;14.60;99.90;;;;;;5022584;28;20034;-71
2023/07/05 05:04:04;;;;;;;211.23;201.35;;;14.50;99.90;;;;;;5028330;28;20045;-71
2023/07/05 05:06:30;;;;;;;178.32;170.27;;;14.50;99.90;;;;;;5024003;28;20399;-71
2023/07/05 05:08:55;;;;;;;234.88;222.57;;;14.50;99.90;;;;;;5041040;28;20187;-70
2023/07/05 05:11:22;;;;;;;145.88;139.27;;;14.50;99.90;;;;;;5024986;28;20049;-70
2023/07/05 05:13:49;;;;;;;169.27;161.77;;;14.50;99.90;;;;;;5045232;28;20045;-71
2023/07/05 05:16:15;;;;;;;250.63;232.10;;;14.40;99.90;;;;;;5027964;28;20580;-70
2023/07/05 05:18:43;;;;;;;103.93;98.88;;;14.40;99.90;;;;;;5021103;28;20119;-70
2023/07/05 05:21:09;;;;;;;73.80;70.05;;;14.40;99.90;;;;;;5025844;28;20528;-70
2023/07/05 05:23:35;;;;;;;101.38;96.72;;;14.40;99.90;;;;;;5018207;28;20187;-69
2023/07/05 05:26:01;;;;;;;88.38;84.13;;;14.40;99.90;;;;;;5025392;28;20114;-71
2023/07/05 05:28:27;;;;;;;97.53;93.13;;;14.30;99.90;;;;;;5027756;28;20045;-70
2023/07/05 05:31:07;;;;;;;84.32;80.45;;;14.30;99.90;;;;;;5044717;28;20053;-70
2023/07/05 05:33:33;;;;;;;178.00;168.85;;;14.30;99.90;;;;;;5022918;28;20045;-70
2023/07/05 05:36:00;;;;;;;104.63;99.70;;;14.20;99.90;;;;;;5028499;28;20512;-71
2023/07/05 05:38:25;;;;;;;160.73;152.65;;;14.20;99.90;;;;;;5004655;28;20508;-70
2023/07/05 05:40:51;;;;;;;118.93;113.40;;;14.30;99.90;;;;;;5025499;28;20033;-70
2023/07/05 05:43:18;;;;;;;130.18;124.03;;;14.30;99.90;;;;;;5024258;28;20444;-70
2023/07/05 05:45:44;;;;;;;142.07;135.38;;;14.40;99.90;;;;;;5027019;28;20101;-70
2023/07/05 05:48:10;;;;;;;161.27;153.75;;;14.40;99.90;;;;;;5008890;28;20045;-71
2023/07/05 05:50:35;;;;;;;142.68;136.13;;;14.50;99.90;;;;;;5025295;28;20053;-70
2023/07/05 05:53:02;;;;;;;116.43;111.07;;;14.50;99.90;;;;;;5009520;28;20037;-70
2023/07/05 05:55:28;;;;;;;127.28;121.63;;;14.40;99.90;;;;;;5009602;28;20087;-70
2023/07/05 05:57:54;;;;;;;239.13;225.70;;;14.40;99.90;;;;;;5016875;28;20038;-70
2023/07/05 06:00:19;;;;;;;157.05;149.95;;;14.50;99.90;;;;;;5022405;28;20042;-70
2023/07/05 06:02:45;;;;;;;121.00;115.50;;;14.40;99.90;;;;;;5035277;28;20044;-70
2023/07/05 06:05:11;;;;;;;207.50;198.05;;;14.40;99.90;;;;;;5027120;28;20080;-69
2023/07/05 06:07:38;;;;;;;169.73;162.35;;;14.40;99.90;;;;;;5009669;28;20080;-69
2023/07/05 06:10:04;;;;;;;156.27;149.18;;;14.40;99.90;;;;;;5010061;28;20060;-71
2023/07/05 06:12:30;;;;;;;142.18;135.77;;;14.50;99.90;;;;;;5020508;28;20041;-69
2023/07/05 06:14:55;;;;;;;138.88;132.82;;;14.50;99.90;;;;;;5027148;28;20041;-70
2023/07/05 06:17:21;;;;;;;166.57;159.15;;;14.50;99.90;;;;;;5025331;28;20209;-70
2023/07/05 06:19:47;;;;;;;141.50;135.32;;;14.50;99.90;;;;;;5020999;28;20106;-69
2023/07/05 06:22:12;;;;;;;162.75;155.57;;;14.50;99.90;;;;;;5026577;28;20053;-70
2023/07/05 06:24:41;;;;;;;208.90;199.63;;;14.50;99.90;;;;;;5007319;28;20040;-68
2023/07/05 06:27:06;;;;;;;241.20;230.68;;;14.50;99.90;;;;;;5015568;28;20095;-70
2023/07/05 06:29:32;;;;;;;158.30;151.30;;;14.40;99.90;;;;;;5027033;28;20033;-69
2023/07/05 06:31:57;;;;;;;269.23;257.42;;;14.50;99.90;;;;;;5026823;28;20151;-70
2023/07/05 06:34:24;;;;;;;299.50;279.95;;;14.50;99.90;;;;;;5024075;28;20049;-69
2023/07/05 06:36:50;;;;;;;182.32;174.40;;;14.60;99.90;;;;;;5026356;28;20049;-69
2023/07/05 06:39:15;;;;;;;153.63;146.70;;;15.00;99.90;;;;;;5025353;28;20083;-69
2023/07/05 06:41:41;;;;;;;214.60;203.98;;;15.60;99.90;;;;;;5026633;28;20485;-70
2023/07/05 06:44:07;;;;;;;165.20;157.90;;;16.00;99.90;;;;;;5026653;28;20064;-70
2023/07/05 06:46:32;;;;;;;196.93;188.15;;;15.90;99.90;;;;;;5024303;28;20052;-70
2023/07/05 06:48:58;;;;;;;287.85;274.35;;;15.70;99.90;;;;;;5005035;28;20056;-69
2023/07/05 06:51:24;;;;;;;153.35;146.48;;;15.60;99.90;;;;;;5042571;28;20544;-70
2023/07/05 06:53:50;;;;;;;238.52;227.77;;;16.00;99.90;;;;;;5021755;28;20050;-69
2023/07/05 06:56:17;;;;;;;218.40;208.88;;;16.20;99.90;;;;;;5025595;28;20464;-70
2023/07/05 06:58:43;;;;;;;260.10;247.98;;;16.30;99.90;;;;;;5027907;28;20398;-68
2023/07/05 07:01:08;;;;;;;184.63;176.30;;;16.40;99.90;;;;;;5019826;28;20060;-70
2023/07/05 07:03:34;;;;;;;111.63;106.78;;;16.90;99.90;;;;;;5026351;28;20041;-70
2023/07/05 07:06:00;;;;;;;325.63;307.42;;;17.80;99.90;;;;;;5006165;28;20053;-69
2023/07/05 07:08:38;;;;;;;311.67;295.77;;;17.60;99.90;;;;;;5026554;28;20124;-69
2023/07/05 07:11:05;;;;;;;378.42;359.92;;;16.90;99.90;;;;;;4997695;28;20045;-70
2023/07/05 07:13:32;;;;;;;433.67;409.17;;;16.40;99.90;;;;;;5026546;28;20070;-69
2023/07/05 07:16:15;;;;;;;379.17;359.70;;;16.00;99.90;;;;;;5025410;28;20041;-70
2023/07/05 07:18:50;;;;;;;368.02;350.00;;;16.10;99.90;;;;;;5025138;28;20045;-69
2023/07/05 07:21:18;;;;;;;406.67;386.08;;;16.30;99.90;;;;;;5032785;28;20148;-69
2023/07/05 07:23:46;;;;;;;413.52;390.77;;;16.00;99.90;;;;;;5040233;28;20486;-70
2023/07/05 07:26:16;;;;;;;436.25;413.20;;;15.70;99.90;;;;;;5024955;28;20505;-69
2023/07/05 07:28:49;;;;;;;422.13;400.50;;;15.50;99.90;;;;;;5021029;28;20046;-70
2023/07/05 07:31:26;;;;;;;411.58;389.88;;;15.40;99.90;;;;;;5040971;28;20045;-69
2023/07/05 07:33:52;;;;;;;504.17;471.60;;;15.40;99.90;;;;;;5007057;28;20083;-69
2023/07/05 07:36:24;;;;;;;391.80;372.80;;;15.30;99.90;;;;;;5023471;28;20038;-69
2023/07/05 07:38:50;;;;;;;387.77;367.15;;;15.30;99.90;;;;;;5021126;28;20063;-69
2023/07/05 07:41:22;;;;;;;404.55;379.15;;;15.20;99.90;;;;;;5019246;28;20048;-70
2023/07/05 07:43:52;;;;;;;380.90;356.52;;;15.00;99.90;;;;;;5042402;28;20458;-69
2023/07/05 07:46:24;;;;;;;218.13;207.57;;;14.80;99.90;;;;;;5019030;28;20058;-69
2023/07/05 07:48:53;;;;;;;246.63;233.13;;;14.40;99.90;;;;;;5025268;28;20097;-70
2023/07/05 07:51:21;;;;;;;240.02;227.63;;;14.10;99.90;;;;;;5019816;28;20121;-68
2023/07/05 07:53:47;;;;;;;243.73;231.60;;;13.80;99.90;;;;;;5020885;28;20094;-70
2023/07/05 07:56:14;;;;;;;127.47;121.75;;;13.60;99.90;;;;;;5024847;28;20041;-70
2023/07/05 07:58:42;;;;;;;243.27;232.02;;;13.40;99.90;;;;;;5023762;28;20045;-69
2023/07/05 08:01:12;;;;;;;364.95;345.80;;;13.30;99.90;;;;;;5008111;28;20359;-70
2023/07/05 08:03:38;;;;;;;363.92;345.65;;;13.00;99.90;;;;;;5018558;28;20057;-69
2023/07/05 08:06:06;;;;;;;324.48;309.60;;;12.70;99.90;;;;;;5023883;28;20429;-68
2023/07/05 08:08:32;;;;;;;299.88;285.63;;;12.50;99.90;;;;;;5025714;28;20042;-68
2023/07/05 08:10:58;;;;;;;277.40;265.85;;;12.30;99.90;;;;;;5026493;28;20107;-68
2023/07/05 08:13:24;;;;;;;396.08;366.13;;;12.20;99.90;;;;;;5023875;28;20045;-68
2023/07/05 08:15:49;;;;;;;359.17;333.30;;;12.10;99.90;;;;;;5025960;28;20042;-67
2023/07/05 08:18:15;;;;;;;524.10;475.98;;;12.00;99.90;;;;;;5028693;28;20749;-69
2023/07/05 08:20:40;;;;;;;227.40;218.23;;;11.90;99.90;;;;;;5029265;28;20065;-68
2023/07/05 08:23:06;;;;;;;268.75;256.50;;;11.90;99.90;;;;;;5037421;28;20122;-68
2023/07/05 08:25:33;;;;;;;424.75;384.83;;;11.80;99.90;;;;;;5027328;28;20065;-68
2023/07/05 08:28:00;;;;;;;275.20;261.15;;;11.80;99.90;;;;;;5046520;28;20052;-67
2023/07/05 08:30:26;;;;;;;264.42;251.50;;;11.80;99.90;;;;;;5028241;28;20065;-68
2023/07/05 08:32:53;;;;;;;216.65;207.82;;;11.80;99.90;;;;;;5011672;28;20449;-68
2023/07/05 08:35:18;;;;;;;224.02;215.10;;;11.70;99.90;;;;;;5028115;28;20172;-69
2023/07/05 08:37:48;;;;;;;374.55;350.92;;;11.70;99.90;;;;;;5025674;28;20049;-68
2023/07/05 08:40:16;;;;;;;310.55;293.52;;;11.70;99.90;;;;;;5009595;28;20033;-68
2023/07/05 08:43:00;;;;;;;200.55;192.43;;;11.70;99.90;;;;;;5023213;28;20111;-67
2023/07/05 08:45:35;;;;;;;322.02;301.50;;;11.60;99.90;;;;;;5029726;28;20521;-68
2023/07/05 08:48:05;;;;;;;252.18;239.57;;;11.70;99.90;;;;;;5029767;28;20037;-67
2023/07/05 08:50:35;;;;;;;327.80;305.80;;;11.70;99.90;;;;;;5029758;28;20080;-67
2023/07/05 08:53:18;;;;;;;494.10;441.17;;;11.60;99.90;;;;;;5026122;28;20493;-67
2023/07/05 08:55:58;;;;;;;186.43;176.57;;;11.60;99.90;;;;;;5042456;28;20418;-67
2023/07/05 08:58:28;;;;;;;165.60;157.80;;;11.60;99.90;;;;;;5035580;28;20038;-67
2023/07/05 09:01:04;;;;;;;204.82;194.77;;;11.60;99.90;;;;;;5022854;28;20077;-67
2023/07/05 09:03:30;;;;;;;209.90;199.75;;;11.70;99.90;;;;;;5024577;28;20033;-67
2023/07/05 09:06:40;;;;;;;281.30;263.35;;;11.70;99.90;;;;;;5026631;28;20525;-67
2023/07/05 09:09:37;;;;;;;273.35;257.58;;;11.80;99.90;;;;;;4985351;28;20434;-67
2023/07/05 09:12:37;;;;;;;706.67;587.30;;;11.90;99.90;;;;;;5008656;28;20077;-67
2023/07/05 09:15:20;;;;;;;519.35;467.77;;;12.00;99.90;;;;;;5025548;28;20072;-68
2023/07/05 09:17:57;;;;;;;574.45;517.65;;;12.10;99.90;;;;;;5012188;28;20045;-68
2023/07/05 09:20:29;;;;;;;378.85;346.77;;;12.20;99.90;;;;;;5028304;28;20033;-67
2023/07/05 09:22:56;;;;;;;227.13;216.05;;;12.20;99.90;;;;;;5022674;28;20056;-67
2023/07/05 09:25:23;;;;;;;444.42;396.10;;;12.30;99.90;;;;;;5025766;28;20041;-68
2023/07/05 09:27:55;;;;;;;203.02;192.00;;;12.40;99.90;;;;;;5029862;28;20405;-68
2023/07/05 09:30:24;;;;;;;215.63;205.90;;;12.50;99.90;;;;;;5024389;28;20041;-68
2023/07/05 09:33:07;;;;;;;215.88;204.73;;;12.60;99.90;;;;;;5049855;28;20044;-68
2023/07/05 09:35:35;;;;;;;637.33;569.15;;;12.70;99.90;;;;;;5040782;28;20038;-68
2023/07/05 09:38:01;;;;;;;249.20;237.85;;;12.80;99.90;;;;;;5026235;28;20068;-68
2023/07/05 09:40:38;;;;;;;528.60;478.48;;;12.90;99.90;;;;;;5037322;28;20065;-67
2023/07/05 09:43:13;;;;;;;264.65;248.18;;;13.00;99.90;;;;;;5037988;28;20077;-68
2023/07/05 09:45:39;;;;;;;236.35;223.10;;;13.20;99.90;;;;;;5041456;28;20046;-68
2023/07/05 09:48:08;;;;;;;157.88;150.80;;;13.30;99.90;;;;;;5028062;28;20033;-69
2023/07/05 09:50:34;;;;;;;248.98;234.48;;;13.30;99.90;;;;;;5036840;28;20037;-68
2023/07/05 09:53:19;;;;;;;264.33;243.98;;;13.30;99.90;;;;;;5044596;28;20026;-68
2023/07/05 09:56:27;;;;;;;166.68;159.25;;;13.40;99.90;;;;;;5020974;28;20112;-69
2023/07/05 09:59:11;;;;;;;227.05;214.38;;;13.50;99.90;;;;;;4985242;28;20042;-68
2023/07/05 10:01:41;;;;;;;100.10;96.00;;;13.60;99.90;;;;;;4985103;28;20046;-68
2023/07/05 10:04:07;;;;;;;208.25;196.18;;;13.70;99.90;;;;;;4968941;28;20386;-68
2023/07/05 10:06:38;;;;;;;150.50;143.43;;;13.80;99.90;;;;;;4968875;28;20074;-67
2023/07/05 10:09:16;;;;;;;204.70;194.90;;;14.10;99.90;;;;;;4982127;28;20183;-68
2023/07/05 10:11:45;;;;;;;458.17;420.70;;;14.40;99.90;;;;;;4970836;28;20046;-68
2023/07/05 10:14:17;;;;;;;301.83;277.00;;;14.90;99.90;;;;;;4969417;28;20050;-69
2023/07/05 10:16:53;;;;;;;209.40;200.13;;;15.10;99.90;;;;;;4968228;28;20078;-68
2023/07/05 10:19:32;;;;;;;202.85;193.90;;;15.10;99.90;;;;;;4972642;28;20641;-68
2023/07/05 10:22:07;;;;;;;225.38;214.93;;;15.20;99.90;;;;;;4968677;28;20076;-68
2023/07/05 10:24:45;;;;;;;247.77;236.85;;;15.40;99.90;;;;;;4986069;28;20042;-67
2023/07/05 10:27:35;;;;;;;260.55;249.98;;;15.40;99.90;;;;;;4967671;28;20104;-69
2023/07/05 10:30:13;;;;;;;229.57;219.93;;;15.50;99.90;;;;;;4969855;28;20054;-68
2023/07/05 10:32:39;;;;;;;380.95;361.52;;;15.80;99.90;;;;;;4987775;28;20061;-69
2023/07/05 10:35:43;;;;;;;497.02;464.38;;;16.10;99.90;;;;;;5017470;28;20414;-68
2023/07/05 10:38:19;;;;;;;232.70;222.95;;;16.20;99.90;;;;;;4968461;28;20055;-68
2023/07/05 10:40:46;;;;;;;355.50;338.55;;;16.30;99.90;;;;;;4972018;28;20120;-68
2023/07/05 10:43:13;;;;;;;202.25;193.30;;;16.30;99.90;;;;;;4973522;28;20064;-68
2023/07/05 10:45:39;;;;;;;320.35;301.13;;;16.40;99.90;;;;;;4969490;28;20066;-68
2023/07/05 10:48:18;;;;;;;150.80;144.43;;;16.40;99.90;;;;;;4973290;28;20509;-68
2023/07/05 10:50:46;;;;;;;178.95;170.38;;;16.30;99.90;;;;;;4966938;28;20117;-68
2023/07/05 10:53:15;;;;;;;182.32;174.27;;;16.20;99.90;;;;;;4965297;28;20041;-69
2023/07/05 10:56:03;;;;;;;245.13;234.23;;;16.30;99.90;;;;;;4982916;28;20050;-68
2023/07/05 10:58:47;;;;;;;216.82;206.00;;;16.40;99.90;;;;;;4977552;28;20095;-67
2023/07/05 11:01:21;;;;;;;210.25;200.98;;;16.80;99.90;;;;;;4963291;28;20060;-68
2023/07/05 11:03:57;;;;;;;268.00;255.43;;;17.30;99.90;;;;;;4983830;28;20451;-68
2023/07/05 11:06:24;;;;;;;261.20;249.63;;;17.50;99.90;;;;;;4972192;28;20046;-68
2023/07/05 11:08:50;;;;;;;144.80;138.55;;;17.70;99.90;;;;;;4965352;28;20058;-69
2023/07/05 11:11:23;;;;;;;262.40;250.77;;;18.00;99.90;;;;;;4948100;28;20057;-68
2023/07/05 11:13:51;;;;;;;184.60;176.55;;;18.10;99.90;;;;;;4974345;28;20465;-68
2023/07/05 11:16:25;;;;;;;190.98;181.52;;;18.00;99.90;;;;;;5019487;28;20589;-69
2023/07/05 11:18:58;;;;;;;;;;;18.00;99.90;;;;;;5004585;28;20044;-69
2023/07/05 11:21:45;;;;;;;193.50;184.68;;;18.20;99.90;;;;;;5020283;28;19927;-68
2023/07/05 11:24:32;;;;;;;159.80;152.63;;;18.20;99.90;;;;;;5016212;28;20041;-67
2023/07/05 11:26:59;;;;;;;137.70;131.57;;;18.10;99.90;;;;;;4992335;28;20056;-67
2023/07/05 11:29:28;;;;;;;155.30;146.73;;;18.10;99.90;;;;;;5020140;28;20106;-67
2023/07/05 11:31:53;;;;;;;115.95;110.65;;;18.30;99.90;;;;;;5023751;28;20052;-68
2023/07/05 11:34:23;;;;;;;149.55;142.68;;;18.50;99.90;;;;;;5003603;28;20043;-69
2023/07/05 11:36:54;;;;;;;89.38;84.78;;;18.60;99.90;;;;;;5018226;28;20470;-68
2023/07/05 11:39:51;;;;;;;79.55;75.97;;;18.70;99.90;;;;;;5033119;28;20048;-69
2023/07/05 11:42:24;;;;;;;57.78;54.83;;;18.70;99.90;;;;;;5027378;28;20112;-68
2023/07/05 11:45:13;;;;;;;63.57;60.10;;;18.70;99.90;;;;;;5027357;28;20050;-68
2023/07/05 11:47:38;;;;;;;88.40;84.00;;;18.80;99.90;;;;;;5029307;28;20505;-68
2023/07/05 11:50:09;;;;;;;95.15;90.85;;;18.80;99.90;;;;;;5030903;28;20103;-67
2023/07/05 11:52:50;;;;;;;99.55;94.65;;;18.90;99.90;;;;;;5033142;28;20052;-67
2023/07/05 11:55:18;;;;;;;128.05;116.90;;;18.90;99.90;;;;;;5027361;28;20042;-70
2023/07/05 11:57:56;;;;;;;97.80;93.05;;;18.90;99.90;;;;;;5029355;28;20046;-68
2023/07/05 12:00:32;;;;;;;299.27;285.55;;;18.70;99.90;;;;;;5039334;28;20124;-68
2023/07/05 12:03:13;;;;;;;631.70;594.22;;;18.30;99.90;;;;;;5040516;28;20470;-68
2023/07/05 12:05:40;;;;;;;699.78;651.03;;;17.80;99.90;;;;;;5042591;28;20042;-69
2023/07/05 12:08:12;;;;;;;676.05;627.08;;;17.20;99.90;;;;;;5025106;28;20038;-68
2023/07/05 12:10:41;;;;;;;612.17;575.20;;;16.50;99.90;;;;;;5022157;28;20046;-68
2023/07/05 12:13:19;;;;;;;551.90;522.65;;;16.00;99.90;;;;;;5025466;28;20029;-67
2023/07/05 12:15:45;;;;;;;418.77;396.02;;;15.60;99.90;;;;;;5026397;28;20037;-67
2023/07/05 12:18:14;;;;;;;419.17;391.60;;;15.30;99.90;;;;;;5011735;28;20580;-67
2023/07/05 12:20:42;;;;;;;444.67;410.15;;;15.10;99.90;;;;;;5023136;28;20042;-71
2023/07/05 12:23:14;;;;;;;245.25;234.30;;;14.90;99.90;;;;;;5027509;28;20041;-67
2023/07/05 12:25:41;;;;;;;292.38;278.88;;;14.60;99.90;;;;;;5019614;28;20383;-67